Terminal Aerodrome Forecast
Issued by NWS Amarillo, TX

Home | Current Version | Previous Version | Text Only | Print | Product List | Glossary On
Versions: 1 2 3 4 5 6 7 8 9 10 11 12 13 14
000
FTUS44 KAMA 272300
TAFGUY
TAF
KGUY 272329Z 2800/2824 18017G26KT P6SM SCT100
     FM280200 18014KT P6SM SCT120
     FM281200 24010KT P6SM FEW300
     FM281400 36016KT P6SM SCT080=

USA.gov is the U.S. government's official web portal to all federal, state and local government web resources and services.